Wabasha, Minnesota
Current Conditions -  °F | °C
As of 10:51 PM on Sunday 21 Dec 2014 (Local Time) from KRGK Reporting Station
Light Rain Light Rain  
Wind Chill: 32°   Ceiling: 1200
Heat Index: 39°   Visibility: 5mi
Dew Point: 37°   Wind: 12mph
Humidity: 93%   Direction: 170°S
Pressure: 29.76"   Gusts: NA
Location:  44.38°N, 92.04°W
Report Text: KRGK 220451Z AUTO 17010KT 5SM -RA OVC012 04/03 A2976 RMK AO2 P0003
Loading
Personal Weather Stations






























Interactive Weather Map New forecast layout! Learn more

10-Day Weather Forecast

Advertisements
Track Severe Weather on mobile